AirNav   Pilot Hours Calculator
 
 1207 users online  

KNFJ Choctaw Naval Outlying Field
Milton, Florida, USA

GOING TO MILTON?


FAA INFORMATION EFFECTIVE 05 NOVEMBER 2020

Location

FAA Identifier: NFJ
Lat/Long: 30-30-25.0000N 086-57-35.0000W
30-30.416667N 086-57.583333W
30.5069444,-86.9597222
(estimated)
Elevation: 102 ft. / 31 m (estimated)
Variation: 02W (2010)
Time zone: UTC -6 (UTC -5 during Daylight Saving Time)
Zip code: 32566

Airport Operations

Airport use: Private use. Permission required prior to landing
Control tower: yes
ARTCC: JACKSONVILLE CENTER
FSS: GAINESVILLE FLIGHT SERVICE STATION
Attendance: MON-FRI 1330-2330Z++, ALL SAT-SUN CLSD, ALL HOLS CLSD
Segmented circle: no
Lights: AVBL ONLY DURING HRS OF OPERATION.
Beacon: white-green (lighted land airport)
Operates sunset to sunrise.

Airport Communications

ATIS: 290.55
CHOCTAW TOWER: 121.4 259.25 [OPR 1330-2330Z++MON-FRI, CLSD SAT, SUN, AND HOL.]
PENSACOLA APPROACH: 119.0 ;340-159
PENSACOLA DEPARTURE: 119.0 ;340-159
CLASS C: 119.0 ;340-159
IC: 119.0 ;340-159
WX ASOS at NDZ (12 nm N): PHONE 850-623-7210
WX ASOS at PNS (12 nm W): PHONE 850-436-4799
WX ASOS at NSE (13 nm N): PHONE 850-623-7241

Nearby radio navigation aids

VOR radial/distance  VOR name  Freq  Var
NUNr083/(19.6)SAUFLEY VOR108.8001E
CEWr214/24.0CRESTVIEW VORTAC115.9003E

 
NDB name  Hdg/Dist  Freq  Var  ID
PICKENS072/12.132602WPKZ .--. -.- --..

Airport Services

Runway Information

Runway 18/36

Dimensions: 8000 x 150 ft. / 2438 x 46 m
Surface: asphalt
Weight bearing capacity: 
PCN 37 /F/B/W/T
Runway edge lights: high intensity
RUNWAY 18  RUNWAY 36
Traffic pattern: leftleft

Airport Ownership and Management from official FAA records

Ownership: U.S. Navy
Owner: US NAVY
COMTRAWING 6
NAS PENSACOLA, FL 32508
Manager: COMMANDING OFFICER
OPERATIONS DEPARTMENT, 7077 USS LEXINGTON COURT
MILTON, FL 32570-6155
Phone 850-623-7755
OR 850-623-7372

Additional Remarks

FOR FLIGHT ADVISORIES CTC WHITING FIELD NAS BASE OPS DSN 868-7597 C850-623-7597. CRASH CREWS AVBL DURING OPR HRS.
RY LIGHTING MUST BE REQUESTED DURG OPNL HRS.
RSTD: MIL USE ONLY.
MISC: CTL AGENCY NAS WHITING FLD, DSN 868-7475, C850-623-7475. TWR AND CRASH CREW PERS ON STN DUR OPR HR. UNLGTD COPTER PAD ON TWY S OF CTL TWR.
AGEAR: E28 (B) 1500 FT FR EITHER END OF RWY 18-36, APP END GEAR NORM DERIGGED, DEP END GEAR NORM RIGGED, BOTH GEARS RIGGED WITH PRIOR NOTIFICATION.
RSTD: TRAWING 5 AND 6 ACFT ONLY. PPR FOR ALL OTHER ACFT. CLSD FLD OPS PROH EXC LO APCH.
FOR CD CTC PENSACOLA APCH AT 850-266-6884 OR 850-266-6885.

Instrument Procedures

There are no published instrument procedures at KNFJ.

Some nearby airports with instrument procedures:

2R4 - Peter Prince Field Airport (8 nm N)
KNDZ - Whiting Field Naval Air Station South (12 nm N)
KPNS - Pensacola International Airport (12 nm W)
KNSE - Whiting Field Naval Air Station North (13 nm N)
KHRT - Hurlburt Field Airport (15 nm E)
 
Loc | Ops | Rwys | IFR | FBO | Links
Com | Nav | Svcs | Stats | Notes

Continental Services
AirBoss

 
Area around KNFJ (Choctaw Naval Outlying Field)
 
Road maps at: MapQuest Bing Google
 
Aerial photo
No photo
 
Sectional chart

 
Airport distance calculator
Flying to Choctaw Naval Outlying Field? Find the distance to fly.

From to KNFJ

Sunrise and sunset
Times for 27-Nov-2020
 Local
(UTC-6)
 Zulu
(UTC)
Morning civil twilight06:0012:00
Sunrise06:2612:26
Sunset16:4622:46
Evening civil twilight17:1223:12

Current date and time
Zulu (UTC)  27-Nov-2020 17:30:00
Local (UTC-6)  27-Nov-2020 11:30:00
 
METAR
KPNS 
12nm W 
271653Z 00000KT 10SM OVC007 23/21 A3009 RMK AO2 SLP192 T02280211
KNDZ 
12nm N 
271656Z 00000KT 10SM BKN012 BKN075 24/20 A3010 RMK SLP179 T02390200
KNSE 
13nm N 
271656Z 00000KT 10SM BKN014 OVC080 23/19 A3010 RMK AO2 SLP179 T02330194 PNO $
KHRT 
16nm E 
271714Z AUTO 14005KT 10SM -DZ BKN040 26/22 A3008 RMK AO2 SLP188 $
TAF
KPNS 
12nm W 
271125Z 2712/2812 00000KT 1/4SM FG VV002 FM271500 12003KT 6SM BR VCSH BKN005 BKN050 FM271700 13005KT P6SM VCSH BKN035 BKN070 PROB30 2721/2724 5SM TSRA BKN025CB FM280000 19005KT 5SM -TSRA BKN020CB OVC035 FM280300 34006KT 3SM SHRA OVC007
NOTAMs
Click for the latest NOTAMs
NOTAMs are issued by the DoD/FAA and will open in a separate window not controlled by AirNav.

 

 
 

Would you like to see your business listed on this page?

 If your business provides an interesting product or service to pilots, flight crews, aircraft, or users of the Choctaw Naval Outlying Field, you should consider listing it here.  To start the listing process, click on the button below
 
Add a business
 

Other Pages about Choctaw Naval Outlying Field

Update a link
 
Copyright © AirNav, LLC. All rights reserved. Privacy Policy  Contact